createdAt,value
2019-03-20T00:01:43.168Z,99.90
2019-03-20T00:04:03.601Z,99.90
2019-03-20T00:06:33.022Z,99.90
2019-03-20T00:09:02.942Z,99.90
2019-03-20T00:11:32.531Z,99.90
2019-03-20T00:14:02.826Z,99.90
2019-03-20T00:16:32.492Z,99.90
2019-03-20T00:19:02.850Z,99.90
2019-03-20T00:21:32.207Z,99.90
2019-03-20T00:24:02.834Z,99.90
2019-03-20T00:26:32.563Z,99.90
2019-03-20T00:29:02.821Z,99.90
2019-03-20T00:31:32.571Z,99.90
2019-03-20T00:34:02.857Z,99.90
2019-03-20T00:36:33.754Z,99.90
2019-03-20T00:39:04.048Z,99.90
2019-03-20T00:41:33.594Z,99.90
2019-03-20T00:44:03.049Z,99.90
2019-03-20T00:46:32.578Z,99.90
2019-03-20T00:49:02.846Z,99.90
2019-03-20T00:51:32.549Z,99.90
2019-03-20T00:54:02.864Z,99.90
2019-03-20T00:56:32.214Z,99.90
2019-03-20T00:59:02.853Z,99.90
2019-03-20T01:01:32.540Z,99.90
2019-03-20T01:04:02.951Z,99.90
2019-03-20T01:06:32.611Z,99.90
2019-03-20T01:09:02.867Z,99.90
2019-03-20T01:11:32.572Z,99.90
2019-03-20T01:14:02.905Z,99.90
2019-03-20T01:16:32.572Z,99.90
2019-03-20T01:19:02.887Z,99.90
2019-03-20T01:21:32.251Z,99.90
2019-03-20T01:24:02.888Z,99.90
2019-03-20T01:26:32.567Z,99.90
2019-03-20T01:29:02.909Z,99.90
2019-03-20T01:31:32.263Z,99.90
2019-03-20T01:34:02.922Z,99.90
2019-03-20T01:36:32.288Z,99.90
2019-03-20T01:39:03.095Z,99.90
2019-03-20T01:41:37.946Z,99.90
2019-03-20T01:44:03.871Z,99.90
2019-03-20T01:46:33.300Z,99.90
2019-03-20T01:49:03.008Z,99.90
2019-03-20T01:51:32.690Z,99.90
2019-03-20T01:54:02.928Z,99.90
2019-03-20T01:56:32.702Z,99.90
2019-03-20T01:59:02.940Z,99.90
2019-03-20T02:01:32.678Z,99.90
2019-03-20T02:04:02.942Z,99.90
2019-03-20T02:06:32.668Z,99.90
2019-03-20T02:09:02.937Z,99.90
2019-03-20T02:11:32.663Z,99.90
2019-03-20T02:14:02.967Z,99.90
2019-03-20T02:16:32.668Z,99.90
2019-03-20T02:19:02.966Z,99.90
2019-03-20T02:21:32.701Z,99.90
2019-03-20T02:24:02.979Z,99.90
2019-03-20T02:26:32.751Z,99.90
2019-03-20T02:29:02.991Z,99.90
2019-03-20T02:31:32.707Z,99.90
2019-03-20T02:34:03.081Z,99.90
2019-03-20T02:36:33.206Z,99.90
2019-03-20T02:39:03.118Z,99.90
2019-03-20T02:41:32.811Z,99.90
2019-03-20T02:44:03.030Z,99.90
2019-03-20T02:46:32.754Z,99.90
2019-03-20T02:49:03.027Z,99.90
2019-03-20T02:51:32.778Z,99.90
2019-03-20T02:54:03.037Z,99.90
2019-03-20T02:56:32.776Z,99.90
2019-03-20T02:59:03.034Z,99.90
2019-03-20T03:01:32.840Z,99.90
2019-03-20T03:04:03.043Z,99.90
2019-03-20T03:06:32.784Z,99.90
2019-03-20T03:09:03.056Z,99.90
2019-03-20T03:11:32.840Z,99.90
2019-03-20T03:14:03.064Z,99.90
2019-03-20T03:16:32.785Z,99.90
2019-03-20T03:19:03.060Z,99.90
2019-03-20T03:21:32.813Z,99.90
2019-03-20T03:24:03.096Z,99.90
2019-03-20T03:26:32.802Z,99.90
2019-03-20T03:29:03.060Z,99.90
2019-03-20T03:31:32.518Z,99.90
2019-03-20T03:34:03.072Z,99.90
2019-03-20T03:36:32.839Z,99.90
2019-03-20T03:39:04.247Z,99.90
2019-03-20T03:41:33.897Z,99.90
2019-03-20T03:44:03.391Z,99.90
2019-03-20T03:46:32.923Z,99.90
2019-03-20T03:49:03.101Z,99.90
2019-03-20T03:51:32.840Z,99.90
2019-03-20T03:54:03.137Z,99.90
2019-03-20T03:56:32.891Z,99.90
2019-03-20T03:59:03.120Z,99.90
2019-03-20T04:01:32.899Z,99.90
2019-03-20T04:04:03.135Z,99.90
2019-03-20T04:06:35.944Z,99.90
2019-03-20T04:09:05.999Z,99.90
2019-03-20T04:11:35.462Z,99.90
2019-03-20T04:14:05.086Z,99.90
2019-03-20T04:16:34.471Z,99.90
2019-03-20T04:19:04.096Z,99.90
2019-03-20T04:21:33.892Z,99.90
2019-03-20T04:24:03.406Z,99.90
2019-03-20T04:26:32.956Z,99.90
2019-03-20T04:29:03.186Z,99.90
2019-03-20T04:31:32.912Z,99.90
2019-03-20T04:34:03.180Z,99.90
2019-03-20T04:36:32.967Z,99.90
2019-03-20T04:39:03.353Z,99.90
2019-03-20T04:41:32.963Z,99.90
2019-03-20T04:44:03.183Z,99.90
2019-03-20T04:46:32.912Z,99.90
2019-03-20T04:49:03.207Z,99.90
2019-03-20T04:51:32.929Z,99.90
2019-03-20T04:54:03.213Z,99.90
2019-03-20T04:56:32.939Z,99.90
2019-03-20T04:59:03.220Z,99.90
2019-03-20T05:01:32.965Z,99.90
2019-03-20T05:04:03.261Z,99.90
2019-03-20T05:06:32.995Z,99.90
2019-03-20T05:09:04.106Z,99.90
2019-03-20T05:11:33.660Z,99.90
2019-03-20T05:14:03.328Z,99.90
2019-03-20T05:16:32.992Z,99.90
2019-03-20T05:19:03.320Z,99.90
2019-03-20T05:21:33.034Z,99.90
2019-03-20T05:24:03.299Z,99.90
2019-03-20T05:26:32.990Z,99.90
2019-03-20T05:29:03.365Z,99.90
2019-03-20T05:31:33.102Z,99.90
2019-03-20T05:34:03.338Z,99.90
2019-03-20T05:36:33.054Z,99.90
2019-03-20T05:39:03.373Z,99.90
2019-03-20T05:41:33.063Z,99.90
2019-03-20T05:44:03.353Z,99.90
2019-03-20T05:46:33.071Z,99.90
2019-03-20T05:49:03.349Z,99.90
2019-03-20T05:51:33.091Z,99.90
2019-03-20T05:54:03.347Z,99.90
2019-03-20T05:56:33.036Z,99.90
2019-03-20T05:59:03.363Z,99.90
2019-03-20T06:01:33.079Z,99.90
2019-03-20T06:04:03.371Z,99.90
2019-03-20T06:06:33.090Z,99.90
2019-03-20T06:09:03.984Z,99.90
2019-03-20T06:11:33.441Z,99.90
2019-03-20T06:14:03.364Z,99.90
2019-03-20T06:16:33.143Z,99.90
2019-03-20T06:19:03.391Z,99.90
2019-03-20T06:21:33.115Z,99.90
2019-03-20T06:24:03.406Z,99.90
2019-03-20T06:26:33.102Z,99.90
2019-03-20T06:29:03.387Z,99.90
2019-03-20T06:31:33.060Z,99.90
2019-03-20T06:34:03.456Z,99.90
2019-03-20T06:36:33.126Z,99.90
2019-03-20T06:39:05.048Z,99.90
2019-03-20T06:41:34.594Z,99.90
2019-03-20T06:44:04.360Z,99.90
2019-03-20T06:46:33.828Z,99.90
2019-03-20T06:49:03.479Z,99.90
2019-03-20T06:51:33.191Z,99.90
2019-03-20T06:54:03.435Z,99.90
2019-03-20T06:56:33.098Z,99.90
2019-03-20T06:59:26.100Z,99.90
2019-03-20T07:01:55.587Z,99.90
2019-03-20T07:04:28.499Z,99.90
2019-03-20T07:07:07.194Z,99.90
2019-03-20T07:09:42.644Z,99.90
2019-03-20T07:12:12.311Z,99.90
2019-03-20T07:14:41.773Z,99.90
2019-03-20T07:17:11.349Z,99.90
2019-03-20T07:19:40.803Z,99.90
2019-03-20T07:22:10.461Z,99.90
2019-03-20T07:24:40.230Z,99.90
2019-03-20T07:27:09.669Z,99.90
2019-03-20T07:29:39.259Z,99.90
2019-03-20T07:32:08.761Z,99.90
2019-03-20T07:34:38.323Z,99.90
2019-03-20T07:37:07.768Z,99.90
2019-03-20T07:39:37.303Z,99.90
2019-03-20T07:42:06.735Z,99.90
2019-03-20T07:44:36.259Z,99.90
2019-03-20T07:47:05.696Z,99.90
2019-03-20T07:49:35.305Z,99.90
2019-03-20T07:52:04.811Z,99.90
2019-03-20T07:54:34.283Z,99.90
2019-03-20T07:57:03.785Z,99.90
2019-03-20T07:59:33.299Z,99.90
2019-03-20T08:02:03.523Z,99.90
2019-03-20T08:04:33.246Z,99.90
2019-03-20T08:07:03.527Z,99.90
2019-03-20T08:09:33.392Z,99.90
2019-03-20T08:12:03.577Z,99.90
2019-03-20T08:14:33.344Z,99.90
2019-03-20T08:17:03.555Z,99.90
2019-03-20T08:19:33.317Z,99.90
2019-03-20T08:22:03.581Z,98.70
2019-03-20T08:24:33.333Z,98.60
2019-03-20T08:27:04.660Z,95.20
2019-03-20T08:29:34.346Z,91.30
2019-03-20T08:32:03.918Z,80.40
2019-03-20T08:34:33.442Z,76.70
2019-03-20T08:37:03.667Z,74.50
2019-03-20T08:39:33.354Z,76.20
2019-03-20T08:42:03.556Z,72.90
2019-03-20T08:44:33.332Z,71.10
2019-03-20T08:47:03.626Z,70.00
2019-03-20T08:49:33.361Z,72.50
2019-03-20T08:52:03.581Z,67.90
2019-03-20T08:54:33.360Z,66.50
2019-03-20T08:57:03.566Z,66.90
2019-03-20T08:59:33.289Z,65.50
2019-03-20T09:02:03.591Z,65.60
2019-03-20T09:04:35.643Z,69.30
2019-03-20T09:07:04.514Z,69.00
2019-03-20T09:09:33.971Z,66.70
2019-03-20T09:12:03.682Z,68.00
2019-03-20T09:14:33.367Z,62.70
2019-03-20T09:17:03.667Z,59.40
2019-03-20T09:19:33.360Z,56.30
2019-03-20T09:22:03.653Z,53.80
2019-03-20T09:24:33.327Z,54.30
2019-03-20T09:27:03.647Z,52.90
2019-03-20T09:29:36.261Z,53.10
2019-03-20T09:32:04.610Z,53.10
2019-03-20T09:34:34.400Z,53.10
2019-03-20T09:37:03.961Z,53.00
2019-03-20T09:39:33.475Z,54.60
2019-03-20T09:42:03.753Z,55.10
2019-03-20T09:44:33.404Z,54.10
2019-03-20T09:47:03.673Z,52.90
2019-03-20T09:49:33.404Z,53.10
2019-03-20T09:52:03.667Z,55.00
2019-03-20T09:54:33.028Z,56.90
2019-03-20T09:57:03.682Z,55.50
2019-03-20T09:59:33.370Z,54.60
2019-03-20T10:02:03.728Z,53.70
2019-03-20T10:04:33.364Z,52.30
2019-03-20T10:07:03.710Z,51.00
2019-03-20T10:09:33.382Z,51.70
2019-03-20T10:12:03.714Z,48.60
2019-03-20T10:14:33.067Z,49.50
2019-03-20T10:17:03.734Z,48.50
2019-03-20T10:19:33.459Z,49.30
2019-03-20T10:22:03.735Z,48.60
2019-03-20T10:24:33.460Z,49.80
2019-03-20T10:27:03.744Z,50.10
2019-03-20T10:29:33.409Z,48.80
2019-03-20T10:32:03.775Z,48.70
2019-03-20T10:34:39.334Z,48.40
2019-03-20T10:37:04.686Z,47.30
2019-03-20T10:39:34.109Z,47.10
2019-03-20T10:42:03.827Z,47.50
2019-03-20T10:44:33.489Z,48.50
2019-03-20T10:47:03.753Z,48.20
2019-03-20T10:49:33.502Z,48.50
2019-03-20T10:52:03.758Z,46.90
2019-03-20T10:54:33.443Z,47.10
2019-03-20T10:57:03.787Z,50.90
2019-03-20T10:59:33.485Z,50.40
2019-03-20T11:02:03.814Z,50.30
2019-03-20T11:04:33.494Z,51.10
2019-03-20T11:07:03.757Z,47.60
2019-03-20T11:09:33.475Z,47.70
2019-03-20T11:12:03.747Z,48.00
2019-03-20T11:14:33.543Z,51.70
2019-03-20T11:17:03.818Z,51.70
2019-03-20T11:19:33.543Z,53.40
2019-03-20T11:22:03.763Z,52.00
2019-03-20T11:24:33.220Z,51.20
2019-03-20T11:27:03.779Z,50.80
2019-03-20T11:29:33.494Z,53.20
2019-03-20T11:32:02.933Z,51.70
2019-03-20T11:34:32.569Z,50.70
2019-03-20T11:37:02.983Z,49.80
2019-03-20T11:39:32.577Z,51.40
2019-03-20T11:42:02.993Z,52.10
2019-03-20T11:44:32.592Z,50.00
2019-03-20T11:47:02.011Z,51.10
2019-03-20T11:49:31.634Z,48.20
2019-03-20T11:52:01.095Z,49.00
2019-03-20T11:54:30.613Z,47.10
2019-03-20T11:57:00.109Z,46.70
2019-03-20T11:59:29.587Z,46.80
2019-03-20T12:01:59.023Z,47.10
2019-03-20T12:04:28.613Z,46.00
2019-03-20T12:06:58.103Z,46.10
2019-03-20T12:09:27.605Z,48.80
2019-03-20T12:11:57.099Z,48.80
2019-03-20T12:14:26.705Z,49.20
2019-03-20T12:16:56.141Z,50.30
2019-03-20T12:19:25.697Z,49.60
2019-03-20T12:21:55.203Z,47.60
2019-03-20T12:24:24.699Z,47.40
2019-03-20T12:26:54.125Z,45.00
2019-03-20T12:29:23.763Z,46.20
2019-03-20T12:31:53.280Z,47.50
2019-03-20T12:34:22.796Z,44.80
2019-03-20T12:36:52.219Z,45.70
2019-03-20T12:39:21.863Z,45.50
2019-03-20T12:41:51.299Z,45.80
2019-03-20T12:44:20.839Z,44.20
2019-03-20T12:46:50.271Z,46.40
2019-03-20T12:49:19.871Z,52.10
2019-03-20T12:51:49.315Z,51.30
2019-03-20T12:54:18.858Z,47.70
2019-03-20T12:56:48.295Z,47.60
2019-03-20T12:59:17.872Z,46.50
2019-03-20T13:01:47.651Z,44.70
2019-03-20T13:04:17.044Z,44.20
2019-03-20T13:06:46.723Z,43.80
2019-03-20T13:09:16.101Z,42.60
2019-03-20T13:11:45.723Z,41.10
2019-03-20T13:14:15.178Z,42.50
2019-03-20T13:16:44.733Z,40.60
2019-03-20T13:19:14.204Z,39.20
2019-03-20T13:21:43.805Z,41.20
2019-03-20T13:24:13.235Z,41.30
2019-03-20T13:26:42.757Z,39.50
2019-03-20T13:29:12.177Z,37.70
2019-03-20T13:31:41.771Z,40.20
2019-03-20T13:34:11.263Z,38.20
2019-03-20T13:36:40.783Z,37.10
2019-03-20T13:39:10.148Z,36.50
2019-03-20T13:41:39.799Z,36.90
2019-03-20T13:44:09.308Z,37.20
2019-03-20T13:46:38.775Z,35.80
2019-03-20T13:49:08.204Z,36.20
2019-03-20T13:51:37.783Z,36.00
2019-03-20T13:54:07.240Z,34.80
2019-03-20T13:56:36.795Z,36.00
2019-03-20T13:59:06.221Z,37.30
2019-03-20T14:01:35.808Z,36.00
2019-03-20T14:04:05.311Z,34.40
2019-03-20T14:06:34.819Z,33.80
2019-03-20T14:09:06.856Z,36.10
2019-03-20T14:11:36.392Z,34.20
2019-03-20T14:14:05.957Z,34.30
2019-03-20T14:16:35.417Z,33.50
2019-03-20T14:19:04.991Z,32.00
2019-03-20T14:21:34.773Z,30.70
2019-03-20T14:24:04.210Z,30.00
2019-03-20T14:26:33.947Z,29.40
2019-03-20T14:29:04.219Z,28.10
2019-03-20T14:31:34.145Z,27.00
2019-03-20T14:34:04.169Z,25.20
2019-03-20T14:36:34.157Z,24.00
2019-03-20T14:39:06.030Z,24.40
2019-03-20T14:41:35.992Z,23.70
2019-03-20T14:44:05.418Z,23.10
2019-03-20T14:46:35.202Z,21.90
2019-03-20T14:49:04.976Z,20.80
2019-03-20T14:51:34.994Z,19.80
2019-03-20T14:54:04.492Z,19.10
2019-03-20T14:56:34.306Z,19.10
2019-03-20T14:59:04.430Z,19.10
2019-03-20T15:01:34.291Z,18.90
2019-03-20T15:04:04.456Z,18.70
2019-03-20T15:06:34.252Z,19.40
2019-03-20T15:09:06.389Z,19.10
2019-03-20T15:11:36.187Z,19.00
2019-03-20T15:14:05.903Z,19.70
2019-03-20T15:16:35.363Z,21.60
2019-03-20T15:19:07.071Z,21.80
2019-03-20T15:21:36.384Z,21.00
2019-03-20T15:24:06.091Z,20.50
2019-03-20T15:26:36.104Z,19.90
2019-03-20T15:29:06.031Z,19.50
2019-03-20T15:31:36.141Z,19.50
2019-03-20T15:34:06.135Z,19.30
2019-03-20T15:36:36.161Z,19.20
2019-03-20T15:39:07.105Z,19.00
2019-03-20T15:41:36.626Z,19.00
2019-03-20T15:44:06.260Z,18.90
2019-03-20T15:46:36.275Z,19.20
2019-03-20T15:49:06.270Z,19.20
2019-03-20T15:51:36.293Z,19.40
2019-03-20T15:54:06.276Z,19.50
2019-03-20T15:56:36.010Z,19.80
2019-03-20T15:59:05.455Z,19.90
2019-03-20T16:01:34.990Z,20.40
2019-03-20T16:04:05.118Z,20.50
2019-03-20T16:06:34.651Z,21.30
2019-03-20T16:09:06.739Z,22.30
2019-03-20T16:11:36.235Z,23.10
2019-03-20T16:14:06.202Z,24.00
2019-03-20T16:16:35.634Z,24.50
2019-03-20T16:19:05.191Z,24.50
2019-03-20T16:21:34.628Z,24.70
2019-03-20T16:24:04.334Z,24.80
2019-03-20T16:26:34.122Z,24.70
2019-03-20T16:29:04.387Z,25.30
2019-03-20T16:31:36.963Z,25.40
2019-03-20T16:34:06.649Z,26.00
2019-03-20T16:36:36.201Z,27.50
2019-03-20T16:39:07.582Z,29.70
2019-03-20T16:41:38.763Z,30.40
2019-03-20T16:44:10.328Z,32.20
2019-03-20T16:46:40.010Z,33.50
2019-03-20T16:49:11.220Z,36.10
2019-03-20T16:51:40.994Z,37.80
2019-03-20T16:54:10.524Z,39.30
2019-03-20T16:56:40.090Z,39.40
2019-03-20T16:59:09.667Z,40.60
2019-03-20T17:01:39.158Z,40.90
2019-03-20T17:04:08.726Z,42.10
2019-03-20T17:06:38.224Z,42.40
2019-03-20T17:09:07.714Z,43.20
2019-03-20T17:11:38.603Z,43.20
2019-03-20T17:14:08.358Z,43.70
2019-03-20T17:16:42.883Z,43.80
2019-03-20T17:19:09.431Z,44.10
2019-03-20T17:21:39.089Z,45.40
2019-03-20T17:24:08.621Z,45.60
2019-03-20T17:26:41.366Z,46.30
2019-03-20T17:29:11.267Z,46.50
2019-03-20T17:31:43.850Z,47.80
2019-03-20T17:34:13.517Z,47.80
2019-03-20T17:36:43.161Z,47.70
2019-03-20T17:39:12.850Z,48.10
2019-03-20T17:41:42.292Z,48.90
2019-03-20T17:44:11.762Z,49.30
2019-03-20T17:46:41.198Z,49.30
2019-03-20T17:49:10.703Z,49.60
2019-03-20T17:51:40.323Z,49.50
2019-03-20T17:54:10.502Z,51.50
2019-03-20T17:56:40.178Z,51.20
2019-03-20T17:59:09.812Z,51.20
2019-03-20T18:01:39.340Z,51.30
2019-03-20T18:04:09.517Z,51.20
2019-03-20T18:06:39.195Z,51.70
2019-03-20T18:09:08.702Z,51.70
2019-03-20T18:11:47.156Z,51.70
2019-03-20T18:14:15.893Z,51.80
2019-03-20T18:16:45.663Z,52.40
2019-03-20T18:19:16.007Z,52.10
2019-03-20T18:21:45.731Z,52.90
2019-03-20T18:24:15.479Z,53.70
2019-03-20T18:26:45.599Z,53.10
2019-03-20T18:29:15.470Z,53.50
2019-03-20T18:31:46.162Z,53.60
2019-03-20T18:34:17.605Z,54.00
2019-03-20T18:36:47.526Z,53.80
2019-03-20T18:39:17.388Z,54.30
2019-03-20T18:41:57.229Z,55.00
2019-03-20T18:44:18.876Z,55.60
2019-03-20T18:46:48.471Z,56.00
2019-03-20T18:49:18.333Z,57.00
2019-03-20T18:51:47.983Z,56.80
2019-03-20T18:54:17.637Z,56.90
2019-03-20T18:56:47.286Z,57.60
2019-03-20T18:59:17.591Z,57.50
2019-03-20T19:01:54.934Z,57.10
2019-03-20T19:04:24.445Z,57.20
2019-03-20T19:06:54.556Z,58.30
2019-03-20T19:09:24.438Z,58.60
2019-03-20T19:12:07.991Z,59.50
2019-03-20T19:14:29.352Z,60.30
2019-03-20T19:16:59.047Z,61.20
2019-03-20T19:19:28.739Z,61.10
2019-03-20T19:21:58.648Z,61.30
2019-03-20T19:24:28.664Z,62.20
2019-03-20T19:26:58.678Z,63.50
2019-03-20T19:29:33.619Z,63.80
2019-03-20T19:32:04.853Z,64.90
2019-03-20T19:34:34.750Z,67.00
2019-03-20T19:37:04.806Z,66.30
2019-03-20T19:39:34.761Z,66.90
2019-03-20T19:42:06.703Z,66.80
2019-03-20T19:44:36.506Z,70.20
2019-03-20T19:47:06.754Z,70.80
2019-03-20T19:49:36.497Z,71.90
2019-03-20T19:52:06.651Z,71.80
2019-03-20T19:54:38.553Z,75.20
2019-03-20T19:57:08.204Z,76.30
2019-03-20T19:59:39.622Z,77.00
2019-03-20T20:02:09.572Z,78.00
2019-03-20T20:04:39.371Z,77.80
2019-03-20T20:07:09.396Z,78.40
2019-03-20T20:09:39.248Z,76.50
2019-03-20T20:12:08.907Z,79.90
2019-03-20T20:14:38.383Z,87.20
2019-03-20T20:17:12.664Z,87.20
2019-03-20T20:19:42.927Z,85.40
2019-03-20T20:22:13.685Z,89.80
2019-03-20T20:24:43.536Z,86.50
2019-03-20T20:27:13.097Z,84.90
2019-03-20T20:29:42.690Z,86.00
2019-03-20T20:32:12.456Z,85.00
2019-03-20T20:34:42.363Z,86.10
2019-03-20T20:37:12.265Z,88.40
2019-03-20T20:39:41.797Z,92.00
2019-03-20T20:42:11.670Z,92.30
2019-03-20T20:44:41.555Z,91.80
2019-03-20T20:47:11.768Z,90.90
2019-03-20T20:49:41.597Z,90.60
2019-03-20T20:52:19.429Z,93.40
2019-03-20T20:54:42.887Z,92.90
2019-03-20T20:57:12.618Z,92.50
2019-03-20T20:59:43.038Z,93.40
2019-03-20T21:02:13.355Z,90.90
2019-03-20T21:04:42.900Z,92.00
2019-03-20T21:07:12.628Z,94.00
2019-03-20T21:09:42.419Z,95.80
2019-03-20T21:12:15.537Z,95.20
2019-03-20T21:14:48.644Z,94.20
2019-03-20T21:17:21.899Z,96.20
2019-03-20T21:19:51.960Z,96.10
2019-03-20T21:22:34.411Z,95.60
2019-03-20T21:25:05.433Z,97.60
2019-03-20T21:28:11.495Z,95.30
2019-03-20T21:30:44.501Z,97.10
2019-03-20T21:33:17.227Z,96.30
2019-03-20T21:35:52.773Z,97.90
2019-03-20T21:38:21.803Z,97.60
2019-03-20T21:41:06.526Z,98.50
2019-03-20T21:43:51.907Z,99.90
2019-03-20T21:46:27.059Z,99.90
2019-03-20T21:48:56.580Z,99.90
2019-03-20T21:51:27.820Z,99.90
2019-03-20T21:54:12.652Z,99.90
2019-03-20T21:56:53.615Z,99.90
2019-03-20T21:59:44.190Z,99.90
2019-03-20T22:02:36.305Z,99.90
2019-03-20T22:05:22.870Z,99.90
2019-03-20T22:07:45.866Z,99.90
2019-03-20T22:10:28.071Z,99.90
2019-03-20T22:13:03.571Z,99.90
2019-03-20T22:15:36.490Z,99.90
2019-03-20T22:18:32.807Z,99.90
2019-03-20T22:21:26.497Z,99.90
2019-03-20T22:24:11.303Z,99.90
2019-03-20T22:26:54.907Z,99.90
2019-03-20T22:29:25.441Z,99.90
2019-03-20T22:32:09.852Z,99.90
2019-03-20T22:34:57.872Z,99.90
2019-03-20T22:37:27.619Z,99.90
2019-03-20T22:40:15.279Z,99.90
2019-03-20T22:42:53.767Z,99.90
2019-03-20T22:45:34.915Z,99.90
2019-03-20T22:48:27.250Z,99.90
2019-03-20T22:50:59.964Z,99.90
2019-03-20T22:53:38.949Z,99.90
2019-03-20T22:56:37.415Z,99.90
2019-03-20T22:59:06.940Z,99.90
2019-03-20T23:01:42.365Z,99.90
2019-03-20T23:04:21.038Z,99.90
2019-03-20T23:06:50.628Z,99.90
2019-03-20T23:09:20.138Z,99.90
2019-03-20T23:11:49.834Z,99.90
2019-03-20T23:14:19.836Z,99.90
2019-03-20T23:16:49.214Z,99.90
2019-03-20T23:19:18.808Z,99.90
2019-03-20T23:21:48.284Z,99.90
2019-03-20T23:24:17.814Z,99.90
2019-03-20T23:26:47.294Z,99.90
2019-03-20T23:29:16.814Z,99.90
2019-03-20T23:31:46.255Z,99.90
2019-03-20T23:34:15.798Z,99.90
2019-03-20T23:36:45.252Z,99.90
2019-03-20T23:39:14.810Z,99.90
2019-03-20T23:41:44.319Z,99.90
2019-03-20T23:44:13.872Z,99.90
2019-03-20T23:46:43.380Z,99.90
2019-03-20T23:49:24.564Z,99.90
2019-03-20T23:51:55.095Z,99.90
2019-03-20T23:54:28.219Z,99.90
2019-03-20T23:56:57.646Z,99.90
2019-03-20T23:59:27.098Z,99.90
